Aktuální počasí v Česku a ve světě - METAR

Seznam meteostanic umístěných nejčasteji na letišti v ČR a ve světě

Vyhledat místa podle abecedy:
A B C D E F G H I J K L M N O P Q R S T U V W X Y Z

Filtrovat:

ID stanice:
a/nebo
Název místa (fulltext):
 
Místo (ID)Naposledy načteno 
Yamoussoukro (DIYO) 16.05.2021 05:00 UTC Zobrazit METAR
DIYO 160500Z 00000KT 8000 BKN010 24/23 Q1012 NOSIG
Yangon (VYYY) 16.05.2021 05:00 UTC Zobrazit METAR
VYYY 160500Z 27007KT 8000 SCT018 35/24 Q1007 NOSIG
Yaounde (FKYS) 15.05.2021 12:00 UTC Zobrazit METAR
FKYS 151200Z VRB02KT 9999 BKN020 30/21 Q1015 NOSIG
Yerevan (UGEE) Zatím nenačteno  
Reklama

Reklama


Newslettter

Počasí na Váš email

Emaily jsou bez reklamy a bez spamu



Odhlásit newsletter



Kontaktujte nás

Kontaktujte Slunečno.cz

Kontaktujte provozovatele Slunecno.cz

Další české internetové stránky (nejen) o počasí najdete v katalogu TOPlist - weby o počasí nebo vyhledejte na internetu, co jste tu na Počasí Slunečno Slunečnu zatím nenašli:
Přidat mezzi oblíbené stránkyPřidat Slunečno.cz do oblíbených | Nastavit jako HOMEPAGENastavit Slunečno.cz jako HOMEPAGE

Posunout stránku nahoru Posunout stránku nahoru Posunout stránku nahoru
Reklama